Time;durP1;ratioP1;P1;durP2;ratioP2;P2;SDS_P1;SDS_P2;PMS_P1;PMS_P2;Temp;Humidity;BMP_temperature;BMP_pressure;BME280_temperature;BME280_humidity;BME280_pressure;Samples;Min_cycle;Max_cycle;Signal;HPM_P1;HPM_P2
2022/12/26 00:01:46;;;;;;;;;;;8.20;99.90;;;;;;5134495;28;19930;-79
2022/12/26 00:04:11;;;;;;;;;;;8.20;99.90;;;;;;5116144;28;19970;-79
2022/12/26 00:06:37;;;;;;;;;;;8.20;99.90;;;;;;5134515;28;19919;-79
2022/12/26 00:09:04;;;;;;;;;;;8.20;99.90;;;;;;5134415;28;19919;-77
2022/12/26 00:11:30;;;;;;;;;;;8.20;99.90;;;;;;5134156;28;19970;-77
2022/12/26 00:14:01;;;;;;;;;;;8.20;99.90;;;;;;5134744;28;19970;-79
2022/12/26 00:16:27;;;;;;;;;;;8.30;99.90;;;;;;5134631;28;19969;-79
2022/12/26 00:18:52;;;;;;;;;;;9.10;99.90;;;;;;5134660;28;19966;-79
2022/12/26 00:21:18;;;;;;;;;;;8.20;99.90;;;;;;5134672;28;19963;-79
2022/12/26 00:23:44;;;;;;;;;;;8.20;99.90;;;;;;5134461;28;19919;-79
2022/12/26 00:26:14;;;;;;;;;;;8.20;99.90;;;;;;5134242;28;20014;-79
2022/12/26 00:28:39;;;;;;;;;;;9.10;99.90;;;;;;5134524;28;19919;-79
2022/12/26 00:31:06;;;;;;;;;;;8.20;99.90;;;;;;5134559;28;19927;-79
2022/12/26 00:33:33;;;;;;;;;;;8.20;99.90;;;;;;5134563;28;19923;-79
2022/12/26 00:36:06;;;;;;;;;;;8.20;99.90;;;;;;5134306;28;20372;-79
2022/12/26 00:38:33;;;;;;;;;;;8.20;99.90;;;;;;5134426;28;19972;-79
2022/12/26 00:40:58;;;;;;;;;;;8.30;99.90;;;;;;5134210;28;19926;-79
2022/12/26 00:43:24;;;;;;;;;;;8.20;99.90;;;;;;5134316;28;19919;-79
2022/12/26 00:45:49;;;;;;;;;;;8.20;99.90;;;;;;5134580;28;19942;-77
2022/12/26 00:48:15;;;;;;;;;;;8.20;99.90;;;;;;5134367;27;20355;-79
2022/12/26 00:50:40;;;;;;;;;;;8.20;99.90;;;;;;5119192;27;19926;-79
2022/12/26 00:53:06;;;;;;;;;;;8.20;99.90;;;;;;5137777;27;19942;-79
2022/12/26 00:55:31;;;;;;;;;;;8.20;99.90;;;;;;5137920;27;19973;-77
2022/12/26 00:57:57;;;;;;;;;;;8.20;99.90;;;;;;5137963;27;20013;-79
2022/12/26 01:00:22;;;;;;;;;;;8.10;99.90;;;;;;5137908;27;19941;-79
2022/12/26 01:02:48;;;;;;;;;;;8.20;99.90;;;;;;5137753;27;19926;-79
2022/12/26 01:05:14;;;;;;;;;;;8.30;99.90;;;;;;5137816;27;19919;-79
2022/12/26 01:07:40;;;;;;;;;;;8.90;99.90;;;;;;5137841;27;19920;-79
2022/12/26 01:10:06;;;;;;;;;;;8.20;99.90;;;;;;5137590;27;19970;-79
2022/12/26 01:12:32;;;;;;;;;;;8.20;99.90;;;;;;5137401;27;19919;-79
2022/12/26 01:14:58;;;;;;;;;;;8.80;99.90;;;;;;5137648;27;19926;-79
2022/12/26 01:17:24;;;;;;;;;;;8.20;99.90;;;;;;5137630;27;19925;-79
2022/12/26 01:19:50;;;;;;;;;;;8.30;99.90;;;;;;5137343;27;19974;-79
2022/12/26 01:22:15;;;;;;;;;;;8.20;99.90;;;;;;5137427;27;19923;-79
2022/12/26 01:24:41;;;;;;;;;;;8.20;99.90;;;;;;5137261;27;20006;-79
2022/12/26 01:27:06;;;;;;;;;;;8.20;99.90;;;;;;5137281;27;20362;-79
2022/12/26 01:29:32;;;;;;;;;;;8.20;99.90;;;;;;5137315;27;19919;-79
2022/12/26 01:31:57;;;;;;;;;;;8.20;99.90;;;;;;5137172;27;19979;-79
2022/12/26 01:34:23;;;;;;;;;;;8.20;99.90;;;;;;5137268;27;19979;-79
2022/12/26 01:36:50;;;;;;;;;;;8.20;99.90;;;;;;5137029;27;19987;-79
2022/12/26 01:39:15;;;;;;;;;;;8.20;99.90;;;;;;5136896;27;19927;-79
2022/12/26 01:41:41;;;;;;;;;;;8.70;99.90;;;;;;5136925;27;19919;-79
2022/12/26 01:44:26;;;;;;;;;;;8.20;99.90;;;;;;5137601;27;19994;-77
2022/12/26 01:46:52;;;;;;;;;;;8.20;99.90;;;;;;5136755;27;19919;-79
2022/12/26 01:49:20;;;;;;;;;;;8.20;99.90;;;;;;5137201;27;20033;-79
2022/12/26 01:51:49;;;;;;;;;;;8.20;99.90;;;;;;5136790;27;19992;-79
2022/12/26 01:54:14;;;;;;;;;;;8.30;99.90;;;;;;5136854;27;19930;-79
2022/12/26 01:56:42;;;;;;;;;;;8.80;99.90;;;;;;5137338;27;19919;-79
2022/12/26 01:59:14;;;;;;;;;;;8.20;99.90;;;;;;5136597;27;19923;-79
2022/12/26 02:01:40;;;;;;;;;;;8.30;99.90;;;;;;5135432;27;19919;-79
2022/12/26 02:06:53;;;;;;;;;;;8.30;99.90;;;;;;5136506;27;19920;-79
2022/12/26 02:09:19;;;;;;;;;;;8.20;99.90;;;;;;5136531;27;19926;-79
2022/12/26 02:11:48;;;;;;;;;;;8.30;99.90;;;;;;5136234;27;20396;-79
2022/12/26 02:14:14;;;;;;;;;;;8.30;99.90;;;;;;5136475;27;19926;-77
2022/12/26 02:16:40;;;;;;;;;;;8.50;99.90;;;;;;5135928;27;19919;-79
2022/12/26 02:19:08;;;;;;;;;;;8.30;99.90;;;;;;5136217;27;19923;-77
2022/12/26 02:21:51;;;;;;;;;;;8.30;99.90;;;;;;5136181;27;19919;-80
2022/12/26 02:24:42;;;;;;;;;;;8.30;99.90;;;;;;5136196;27;19998;-79
2022/12/26 02:27:21;;;;;;;;;;;8.30;99.90;;;;;;5136373;27;19945;-79
2022/12/26 02:29:49;;;;;;;;;;;8.30;99.90;;;;;;5136095;27;19930;-79
2022/12/26 02:32:24;;;;;;;;;;;8.30;99.90;;;;;;5136039;27;19923;-79
2022/12/26 02:34:59;;;;;;;;;;;8.30;99.90;;;;;;5136097;27;19926;-79
2022/12/26 02:37:30;;;;;;;;;;;8.30;99.90;;;;;;5136266;27;19919;-77
2022/12/26 02:39:56;;;;;;;;;;;8.40;99.90;;;;;;5135757;27;19919;-77
2022/12/26 02:42:28;;;;;;;;;;;8.30;99.90;;;;;;5136799;27;19919;-79
2022/12/26 02:47:41;;;;;;;;;;;8.30;99.90;;;;;;5135876;27;19934;-78
2022/12/26 03:15:21;;;;;;;;;;;8.40;99.90;;;;;;5135391;27;19919;-79
2022/12/26 03:17:52;;;;;;;;;;;8.40;99.90;;;;;;5135247;27;19919;-79
2022/12/26 03:20:19;;;;;;;;;;;8.40;99.90;;;;;;5135282;27;20081;-79
2022/12/26 03:22:50;;;;;;;;;;;8.40;99.90;;;;;;5135236;27;19923;-79
2022/12/26 03:28:03;;;;;;;;;;;8.50;99.90;;;;;;5135112;27;19920;-79
2022/12/26 03:36:17;;;;;;;;;;;8.50;99.90;;;;;;5135077;27;19919;-79
2022/12/26 03:38:54;;;;;;;;;;;8.50;99.90;;;;;;5134900;27;20299;-79
2022/12/26 04:20:51;;;;;;;;;;;8.50;99.90;;;;;;5134726;28;19919;-79
2022/12/26 04:45:34;;;;;;;;;;;8.60;99.90;;;;;;5138719;27;19919;-79
2022/12/26 04:50:48;;;;;;;;;;;8.50;99.90;;;;;;5138415;27;19923;-79
2022/12/26 04:53:13;;;;;;;;;;;8.50;99.90;;;;;;5119854;27;19920;-79
2022/12/26 04:55:39;;;;;;;;;;;8.50;99.90;;;;;;5137905;27;20423;-79
2022/12/26 04:58:04;;;;;;;;;;;8.50;99.90;;;;;;5137536;27;19923;-79
2022/12/26 05:00:30;;;;;;;;;;;8.50;99.90;;;;;;5137778;27;19919;-79
2022/12/26 05:11:21;;;;;;;;;;;8.40;99.90;;;;;;5137676;27;19919;-79
2022/12/26 05:13:46;;;;;;;;;;;8.70;99.90;;;;;;5137636;27;19919;-79
2022/12/26 05:29:56;;;;;;;;;;;8.30;99.90;;;;;;5137577;27;19923;-79
2022/12/26 05:35:06;;;;;;;;;;;8.30;99.90;;;;;;5137244;27;19919;-79
2022/12/26 05:37:32;;;;;;;;;;;8.30;99.90;;;;;;5136993;27;20283;-79
2022/12/26 05:39:57;;;;;;;;;;;8.30;99.90;;;;;;5137800;27;20284;-79
2022/12/26 05:42:23;;;;;;;;;;;8.40;99.90;;;;;;5136919;27;20252;-79
2022/12/26 05:44:48;;;;;;;;;;;8.30;99.90;;;;;;5137238;27;19919;-79
2022/12/26 05:47:14;;;;;;;;;;;8.40;99.90;;;;;;5136804;27;20038;-79
2022/12/26 05:49:39;;;;;;;;;;;8.30;99.90;;;;;;5136800;27;19926;-79
2022/12/26 05:52:04;;;;;;;;;;;8.40;99.90;;;;;;5136668;27;20355;-79
2022/12/26 05:54:30;;;;;;;;;;;8.30;99.90;;;;;;5136866;27;19964;-79
2022/12/26 05:56:55;;;;;;;;;;;8.50;99.90;;;;;;5136657;27;19919;-79
2022/12/26 05:59:21;;;;;;;;;;;8.30;99.90;;;;;;5136951;27;19926;-79
2022/12/26 06:01:46;;;;;;;;;;;8.30;99.90;;;;;;5136687;27;19979;-79
2022/12/26 06:04:12;;;;;;;;;;;8.30;99.90;;;;;;5136824;27;20427;-79
2022/12/26 06:06:37;;;;;;;;;;;8.30;99.90;;;;;;5136594;27;19926;-79
2022/12/26 06:09:03;;;;;;;;;;;8.40;99.90;;;;;;5136594;27;19963;-79
2022/12/26 06:11:28;;;;;;;;;;;8.30;99.90;;;;;;5137034;27;19919;-79
2022/12/26 06:13:54;;;;;;;;;;;8.30;99.90;;;;;;5136293;27;19925;-79
2022/12/26 06:16:19;;;;;;;;;;;8.70;99.90;;;;;;5136382;27;20271;-79
2022/12/26 06:18:45;;;;;;;;;;;8.30;99.90;;;;;;5136435;27;20252;-79
2022/12/26 06:21:15;;;;;;;;;;;8.30;99.90;;;;;;5136234;27;19919;-79
2022/12/26 06:23:41;;;;;;;;;;;8.20;99.90;;;;;;5136363;27;19926;-79
2022/12/26 06:26:08;;;;;;;;;;;8.60;99.90;;;;;;5136106;27;20006;-79
2022/12/26 06:28:34;;;;;;;;;;;8.20;99.90;;;;;;5136183;27;19919;-79
2022/12/26 06:31:03;;;;;;;;;;;8.20;99.90;;;;;;5136439;27;19920;-79
2022/12/26 06:33:29;;;;;;;;;;;8.20;99.90;;;;;;5117593;27;19926;-79
2022/12/26 06:35:54;;;;;;;;;;;8.30;99.90;;;;;;5135930;27;20279;-79
2022/12/26 06:38:20;;;;;;;;;;;8.20;99.90;;;;;;5135977;27;19925;-79
2022/12/26 06:40:45;;;;;;;;;;;8.20;99.90;;;;;;5135891;27;19919;-79
2022/12/26 06:43:10;;;;;;;;;;;8.70;99.90;;;;;;5135909;27;20287;-79
2022/12/26 06:45:36;;;;;;;;;;;8.10;99.90;;;;;;5136318;27;19919;-79
2022/12/26 06:48:02;;;;;;;;;;;8.10;99.90;;;;;;5135000;27;20006;-79
2022/12/26 06:50:27;;;;;;;;;;;8.10;99.90;;;;;;5135844;27;20343;-79
2022/12/26 06:52:53;;;;;;;;;;;8.10;99.90;;;;;;5135737;27;19919;-79
2022/12/26 06:55:19;;;;;;;;;;;8.20;99.90;;;;;;5135488;27;19923;-79
2022/12/26 06:57:44;;;;;;;;;;;8.20;99.90;;;;;;5135709;27;19923;-80
2022/12/26 07:00:10;;;;;;;;;;;8.20;99.90;;;;;;5136005;27;20380;-79
2022/12/26 07:02:36;;;;;;;;;;;8.10;99.90;;;;;;5135416;27;19919;-79
2022/12/26 07:05:01;;;;;;;;;;;8.10;99.90;;;;;;5135733;27;20382;-79
2022/12/26 07:07:27;;;;;;;;;;;8.10;99.90;;;;;;5135436;27;20385;-79
2022/12/26 07:09:52;;;;;;;;;;;8.10;99.90;;;;;;5135433;27;19919;-79
2022/12/26 07:12:20;;;;;;;;;;;8.10;99.90;;;;;;5135208;27;19919;-79
2022/12/26 07:14:46;;;;;;;;;;;8.10;99.90;;;;;;5135760;27;20287;-79
2022/12/26 07:17:11;;;;;;;;;;;8.00;99.90;;;;;;5135192;27;19919;-79
2022/12/26 07:19:37;;;;;;;;;;;7.90;99.90;;;;;;5135058;27;19926;-79
2022/12/26 07:22:02;;;;;;;;;;;7.90;99.90;;;;;;5117316;27;19927;-79
2022/12/26 07:24:28;;;;;;;;;;;8.40;99.90;;;;;;5135314;27;19926;-79
2022/12/26 07:26:53;;;;;;;;;;;7.80;99.90;;;;;;5135278;27;19981;-79
2022/12/26 07:29:20;;;;;;;;;;;7.80;99.90;;;;;;5135174;27;20330;-79
2022/12/26 07:31:46;;;;;;;;;;;7.70;99.90;;;;;;5135162;27;19971;-79
2022/12/26 07:34:11;;;;;;;;;;;7.70;99.90;;;;;;5135151;27;19927;-79
2022/12/26 07:36:37;;;;;;;;;;;7.60;99.90;;;;;;5134911;27;19925;-79
2022/12/26 07:39:03;;;;;;;;;;;7.60;99.90;;;;;;5134814;27;19919;-79
2022/12/26 07:44:13;;;;;;;;;;;7.60;99.90;;;;;;5135359;27;19919;-79
2022/12/26 07:46:38;;;;;;;;;;;7.60;99.90;;;;;;5134981;28;19927;-79
2022/12/26 07:49:04;;;;;;;;;;;7.70;99.90;;;;;;5134964;28;20380;-79
2022/12/26 07:51:29;;;;;;;;;;;7.70;99.90;;;;;;5134529;28;20002;-79
2022/12/26 07:53:55;;;;;;;;;;;7.60;99.90;;;;;;5117478;28;19919;-79
2022/12/26 07:56:21;;;;;;;;;;;7.70;99.90;;;;;;5135710;28;19926;-79
2022/12/26 07:58:50;;;;;;;;;;;7.80;99.90;;;;;;5117137;27;20345;-79
2022/12/26 08:01:16;;;;;;;;;;;7.80;99.90;;;;;;5139197;27;19926;-79
2022/12/26 08:03:41;;;;;;;;;;;7.80;99.90;;;;;;5139019;27;19920;-79
2022/12/26 08:06:10;;;;;;;;;;;7.80;99.90;;;;;;5138757;27;19919;-79
2022/12/26 08:08:36;;;;;;;;;;;7.80;99.90;;;;;;5139116;27;19959;-79
2022/12/26 08:11:03;;;;;;;;;;;7.70;99.90;;;;;;5138928;27;20015;-79
2022/12/26 08:13:28;;;;;;;;;;;7.70;99.90;;;;;;5138788;27;19988;-79
2022/12/26 08:15:54;;;;;;;;;;;7.70;99.90;;;;;;5138755;27;20355;-79
2022/12/26 08:18:20;;;;;;;;;;;7.70;99.90;;;;;;5138550;27;19923;-79
2022/12/26 08:20:45;;;;;;;;;;;7.60;99.90;;;;;;5138475;27;20349;-79
2022/12/26 08:23:11;;;;;;;;;;;7.60;99.90;;;;;;5139413;27;19926;-79
2022/12/26 08:25:36;;;;;;;;;;;7.60;99.90;;;;;;5138719;27;19979;-79
2022/12/26 08:28:02;;;;;;;;;;;7.60;99.90;;;;;;5138794;27;19927;-79
2022/12/26 08:30:27;;;;;;;;;;;7.60;99.90;;;;;;5138328;27;19971;-79
2022/12/26 08:32:53;;;;;;;;;;;7.60;99.90;;;;;;5138146;27;20371;-79
2022/12/26 08:35:18;;;;;;;;;;;7.60;99.90;;;;;;5138192;27;19919;-79
2022/12/26 08:37:45;;;;;;;;;;;7.60;99.90;;;;;;5138500;27;19941;-79
2022/12/26 08:40:11;;;;;;;;;;;7.60;99.90;;;;;;5138721;27;19987;-79
2022/12/26 08:42:36;;;;;;;;;;;7.60;99.90;;;;;;5138480;27;20014;-79
2022/12/26 08:45:02;;;;;;;;;;;7.60;99.90;;;;;;5138388;27;19919;-79
2022/12/26 08:47:27;;;;;;;;;;;7.60;99.90;;;;;;5138123;27;20002;-79
2022/12/26 08:49:53;;;;;;;;;;;7.60;99.90;;;;;;5138045;27;19926;-79
2022/12/26 08:52:18;;;;;;;;;;;7.70;99.90;;;;;;5138544;27;19919;-79
2022/12/26 08:54:44;;;;;;;;;;;7.70;99.90;;;;;;5137949;27;20023;-79
2022/12/26 08:57:09;;;;;;;;;;;7.80;99.90;;;;;;5137905;27;19919;-79
2022/12/26 08:59:35;;;;;;;;;;;7.90;99.90;;;;;;5137906;27;20271;-79
2022/12/26 09:02:00;;;;;;;;;;;7.90;99.90;;;;;;5137829;27;20385;-79
2022/12/26 09:04:26;;;;;;;;;;;8.50;99.90;;;;;;5137932;27;20378;-79
2022/12/26 09:06:51;;;;;;;;;;;8.60;99.90;;;;;;5137371;27;19926;-79
2022/12/26 09:09:17;;;;;;;;;;;9.30;99.90;;;;;;5119377;27;20042;-79
2022/12/26 09:11:42;;;;;;;;;;;8.20;99.90;;;;;;5119301;27;19984;-79
2022/12/26 09:14:09;;;;;;;;;;;8.20;99.90;;;;;;5137580;27;19919;-79
2022/12/26 09:16:37;;;;;;;;;;;9.30;99.90;;;;;;5137704;27;19924;-79
2022/12/26 09:19:04;;;;;;;;;;;9.40;99.90;;;;;;5137813;27;19985;-79
2022/12/26 09:21:30;;;;;;;;;;;8.40;99.90;;;;;;5137540;27;19973;-79
2022/12/26 09:23:56;;;;;;;;;;;8.50;99.90;;;;;;5137671;27;19955;-79
2022/12/26 09:26:21;;;;;;;;;;;8.60;99.90;;;;;;5137576;27;20510;-79
2022/12/26 09:28:47;;;;;;;;;;;9.60;99.90;;;;;;5137704;27;20019;-79
2022/12/26 09:31:13;;;;;;;;;;;8.70;99.90;;;;;;5137350;27;19922;-80
2022/12/26 09:33:39;;;;;;;;;;;9.70;99.90;;;;;;5136923;27;20410;-79
2022/12/26 09:36:06;;;;;;;;;;;9.70;99.90;;;;;;5101715;27;20010;-79
2022/12/26 09:38:31;;;;;;;;;;;8.80;99.90;;;;;;5137807;27;19919;-79
2022/12/26 09:41:08;;;;;;;;;;;9.20;99.90;;;;;;5137295;27;19925;-79
2022/12/26 09:43:40;;;;;;;;;;;8.90;99.90;;;;;;5137166;27;19920;-79
2022/12/26 09:46:11;;;;;;;;;;;8.90;99.90;;;;;;5137016;27;19926;-79
2022/12/26 09:48:42;;;;;;;;;;;8.90;99.90;;;;;;5136683;27;20278;-79
2022/12/26 09:51:09;;;;;;;;;;;8.90;99.90;;;;;;5137169;27;19966;-79
2022/12/26 09:53:35;;;;;;;;;;;8.90;99.90;;;;;;5136848;27;20286;-79
2022/12/26 09:56:04;;;;;;;;;;;8.90;99.90;;;;;;5137055;27;19963;-79
2022/12/26 09:58:38;;;;;;;;;;;9.70;99.90;;;;;;5101558;27;20364;-79
2022/12/26 10:01:06;;;;;;;;;;;8.90;99.90;;;;;;5136581;27;20363;-79
2022/12/26 10:03:43;;;;;;;;;;;9.00;99.90;;;;;;5118516;27;20063;-79
2022/12/26 10:06:09;;;;;;;;;;;8.90;99.90;;;;;;5136885;27;19963;-79
2022/12/26 10:08:37;;;;;;;;;;;9.00;99.90;;;;;;5136541;27;19985;-79
2022/12/26 10:11:04;;;;;;;;;;;9.00;99.90;;;;;;5136531;27;19919;-79
2022/12/26 10:13:39;;;;;;;;;;;9.30;99.90;;;;;;5136573;27;20014;-79
2022/12/26 10:16:04;;;;;;;;;;;9.20;99.90;;;;;;5136595;27;19927;-79
2022/12/26 10:18:48;;;;;;;;;;;9.20;99.90;;;;;;5136210;27;20271;-80
2022/12/26 10:21:37;;;;;;;;;;;9.20;99.90;;;;;;5135545;27;20286;-79
2022/12/26 10:24:02;;;;;;;;;;;9.20;99.90;;;;;;5125345;27;20083;-80
2022/12/26 10:26:30;;;;;;;;;;;9.20;99.90;;;;;;5136747;27;19968;-78
2022/12/26 10:29:03;;;;;;;;;;;9.20;99.90;;;;;;5136057;27;19919;-80
2022/12/26 10:31:28;;;;;;;;;;;9.20;99.90;;;;;;5135933;27;19926;-80
2022/12/26 10:34:02;;;;;;;;;;;9.10;99.90;;;;;;5136093;27;19923;-80
2022/12/26 10:36:30;;;;;;;;;;;9.20;99.90;;;;;;5136034;27;19919;-80
2022/12/26 10:38:57;;;;;;;;;;;9.00;99.90;;;;;;5136088;27;19920;-80
2022/12/26 10:41:30;;;;;;;;;;;9.20;99.90;;;;;;5135849;27;19942;-80
2022/12/26 10:43:55;;;;;;;;;;;8.70;99.90;;;;;;5136006;27;20019;-80
2022/12/26 10:46:39;;;;;;;;;;;8.50;99.90;;;;;;5135394;27;19967;-80
2022/12/26 10:49:08;;;;;;;;;;;8.40;99.90;;;;;;5135827;27;19923;-80
2022/12/26 10:51:33;;;;;;;;;;;8.30;99.90;;;;;;5135547;27;19923;-80
2022/12/26 10:53:59;;;;;;;;;;;8.20;99.90;;;;;;5135653;27;19972;-79
2022/12/26 10:56:25;;;;;;;;;;;8.20;99.90;;;;;;5135485;27;20374;-79
2022/12/26 10:59:01;;;;;;;;;;;8.20;99.90;;;;;;5152215;27;20291;-77
2022/12/26 11:01:36;;;;;;;;;;;8.20;99.90;;;;;;5135050;27;20346;-79
2022/12/26 11:04:13;;;;;;;;;;;8.20;99.90;;;;;;5135581;27;20363;-79
2022/12/26 11:06:39;;;;;;;;;;;8.20;99.90;;;;;;5135453;27;20018;-79
2022/12/26 11:09:05;;;;;;;;;;;8.20;99.90;;;;;;5135905;27;20278;-79
2022/12/26 11:11:47;;;;;;;;;;;8.10;99.90;;;;;;5135465;27;19992;-80
2022/12/26 11:14:27;;;;;;;;;;;8.10;99.90;;;;;;5135229;27;19941;-79
2022/12/26 11:16:53;;;;;;;;;;;8.10;99.90;;;;;;5135183;27;20416;-79
2022/12/26 11:19:29;;;;;;;;;;;8.10;99.90;;;;;;5135172;27;19919;-79
2022/12/26 11:22:13;;;;;;;;;;;8.10;99.90;;;;;;5151788;27;20363;-80
2022/12/26 11:24:38;;;;;;;;;;;8.00;99.90;;;;;;5135207;27;20334;-79
2022/12/26 11:27:17;;;;;;;;;;;8.00;99.90;;;;;;5135561;27;19927;-79
2022/12/26 11:29:43;;;;;;;;;;;7.90;99.90;;;;;;5135213;27;19972;-79
2022/12/26 11:32:13;;;;;;;;;;;7.90;99.90;;;;;;5135042;27;20359;-79
2022/12/26 11:34:44;;;;;;;;;;;7.90;99.90;;;;;;5135272;27;19962;-79
2022/12/26 11:37:25;;;;;;;;;;;7.80;99.90;;;;;;5135066;27;19923;-79
2022/12/26 11:39:50;;;;;;;;;;;7.80;99.90;;;;;;5134918;27;20290;-80
2022/12/26 11:42:21;;;;;;;;;;;7.90;99.90;;;;;;5116787;27;19920;-79
2022/12/26 11:44:51;;;;;;;;;;;7.80;99.90;;;;;;5134985;27;19964;-79
2022/12/26 11:47:23;;;;;;;;;;;7.70;99.90;;;;;;5135027;27;19988;-79
2022/12/26 11:50:06;;;;;;;;;;;7.70;99.90;;;;;;5134673;28;19920;-79
2022/12/26 11:52:51;;;;;;;;;;;7.70;99.90;;;;;;5134692;28;20018;-79
2022/12/26 11:55:23;;;;;;;;;;;7.70;99.90;;;;;;5116332;28;20353;-79
2022/12/26 11:58:00;;;;;;;;;;;7.70;99.90;;;;;;5134781;28;19919;-79
2022/12/26 12:00:27;;;;;;;;;;;7.70;99.90;;;;;;5134656;28;20378;-79
2022/12/26 12:02:52;;;;;;;;;;;7.60;99.90;;;;;;5135218;28;19919;-77
2022/12/26 12:05:32;;;;;;;;;;;7.60;99.90;;;;;;5134938;28;19927;-77
2022/12/26 12:07:58;;;;;;;;;;;7.60;99.90;;;;;;5134565;28;19926;-79
2022/12/26 12:10:33;;;;;;;;;;;7.60;99.90;;;;;;5134870;28;19923;-79
2022/12/26 12:13:04;;;;;;;;;;;7.60;99.90;;;;;;5099008;28;19972;-79
2022/12/26 12:15:32;;;;;;;;;;;7.50;99.90;;;;;;5135241;28;19919;-79
2022/12/26 12:18:05;;;;;;;;;;;7.50;99.90;;;;;;5135001;28;19926;-79
2022/12/26 12:20:36;;;;;;;;;;;7.50;99.90;;;;;;5134262;28;20366;-79
2022/12/26 12:23:19;;;;;;;;;;;7.50;99.90;;;;;;5134729;28;19919;-79
2022/12/26 12:26:03;;;;;;;;;;;7.50;99.90;;;;;;5135080;28;19969;-80
2022/12/26 12:28:36;;;;;;;;;;;7.40;99.90;;;;;;5134331;28;19920;-79
2022/12/26 12:31:17;;;;;;;;;;;8.20;99.90;;;;;;5134391;28;20419;-79
2022/12/26 12:34:01;;;;;;;;;;;7.40;99.90;;;;;;5134557;28;20010;-79
2022/12/26 12:36:27;;;;;;;;;;;7.40;99.90;;;;;;5134353;28;19941;-79
2022/12/26 12:38:58;;;;;;;;;;;7.40;99.90;;;;;;5134430;28;20414;-77
2022/12/26 12:41:42;;;;;;;;;;;7.90;99.90;;;;;;5134259;28;19919;-77
2022/12/26 12:44:10;;;;;;;;;;;7.40;99.90;;;;;;5134143;27;19919;-77
2022/12/26 12:46:41;;;;;;;;;;;7.40;99.90;;;;;;5137494;27;19972;-77
2022/12/26 12:49:15;;;;;;;;;;;7.40;99.90;;;;;;5138199;27;20343;-78
2022/12/26 12:51:47;;;;;;;;;;;7.50;99.90;;;;;;5138075;27;20014;-79
2022/12/26 12:54:15;;;;;;;;;;;7.50;99.90;;;;;;5138066;27;20027;-79
2022/12/26 12:56:46;;;;;;;;;;;7.50;99.90;;;;;;5137896;27;19919;-79
2022/12/26 12:59:12;;;;;;;;;;;7.50;99.90;;;;;;5120148;27;20375;-78
2022/12/26 13:01:46;;;;;;;;;;;7.50;99.90;;;;;;5137966;27;19931;-78
2022/12/26 13:04:12;;;;;;;;;;;7.40;99.90;;;;;;5137706;27;20010;-79
2022/12/26 13:06:50;;;;;;;;;;;7.40;99.90;;;;;;5137833;27;20365;-79
2022/12/26 13:09:19;;;;;;;;;;;7.40;99.90;;;;;;5137381;27;20465;-79
2022/12/26 13:11:44;;;;;;;;;;;7.40;99.90;;;;;;5137937;27;20505;-79
2022/12/26 13:14:24;;;;;;;;;;;7.40;99.90;;;;;;5137883;27;19970;-79
2022/12/26 13:16:55;;;;;;;;;;;7.40;99.90;;;;;;5137315;27;19919;-79
2022/12/26 13:19:39;;;;;;;;;;;7.30;99.90;;;;;;5137465;27;19920;-79
2022/12/26 13:22:10;;;;;;;;;;;7.30;99.90;;;;;;5138024;27;19923;-79
2022/12/26 13:24:39;;;;;;;;;;;8.10;99.90;;;;;;5137770;27;20365;-79
2022/12/26 13:27:07;;;;;;;;;;;7.20;99.90;;;;;;5137149;27;19967;-79
2022/12/26 13:29:35;;;;;;;;;;;7.20;99.90;;;;;;5137383;27;19926;-79
2022/12/26 13:32:03;;;;;;;;;;;7.30;99.90;;;;;;5137396;27;20284;-79
2022/12/26 13:34:29;;;;;;;;;;;7.50;99.90;;;;;;5137298;27;19966;-78
2022/12/26 13:36:55;;;;;;;;;;;7.10;99.90;;;;;;5137598;27;19923;-79
2022/12/26 13:39:23;;;;;;;;;;;7.10;99.90;;;;;;5137217;27;19919;-78
2022/12/26 13:44:37;;;;;;;;;;;7.10;99.90;;;;;;5137161;27;19919;-78
2022/12/26 13:47:03;;;;;;;;;;;7.10;99.90;;;;;;5136453;27;19930;-78
2022/12/26 13:49:28;;;;;;;;;;;7.10;99.90;;;;;;5137005;27;19973;-78
2022/12/26 13:52:18;;;;;;;;;;;7.00;99.90;;;;;;5136946;27;19930;-79
2022/12/26 13:54:46;;;;;;;;;;;7.00;99.90;;;;;;5107884;27;20264;-78
2022/12/26 13:57:30;;;;;;;;;;;7.00;99.90;;;;;;5136692;27;19919;-78
2022/12/26 14:00:14;;;;;;;;;;;6.90;99.90;;;;;;5136720;27;19919;-78
2022/12/26 14:02:58;;;;;;;;;;;6.90;99.90;;;;;;5136956;27;20020;-79
2022/12/26 14:05:23;;;;;;;;;;;6.90;99.90;;;;;;5136772;27;20004;-79
2022/12/26 14:08:14;;;;;;;;;;;6.80;99.90;;;;;;5136618;27;19920;-78
2022/12/26 14:10:52;;;;;;;;;;;6.70;99.90;;;;;;5136374;27;20370;-78
2022/12/26 14:13:33;;;;;;;;;;;6.70;99.90;;;;;;5136851;27;20324;-79
2022/12/26 14:16:22;;;;;;;;;;;6.70;99.90;;;;;;5136596;27;19963;-78
2022/12/26 14:19:01;;;;;;;;;;;6.60;99.90;;;;;;5125052;27;19938;-78
2022/12/26 14:21:27;;;;;;;;;;;6.60;99.90;;;;;;5136772;27;19942;-78
2022/12/26 14:24:01;;;;;;;;;;;7.10;99.90;;;;;;5136319;27;19919;-78
2022/12/26 14:26:38;;;;;;;;;;;6.50;99.90;;;;;;5136357;27;19927;-79
2022/12/26 14:29:22;;;;;;;;;;;6.50;99.90;;;;;;5136726;27;20387;-79
2022/12/26 14:31:50;;;;;;;;;;;6.40;99.90;;;;;;5136278;27;19920;-78
2022/12/26 14:34:22;;;;;;;;;;;6.40;99.90;;;;;;5136269;27;19926;-79
2022/12/26 14:37:02;;;;;;;;;;;6.30;99.90;;;;;;5136110;27;19923;-79
2022/12/26 14:39:27;;;;;;;;;;;6.30;99.90;;;;;;5136673;27;19919;-78
2022/12/26 14:44:53;;;;;;;;;;;6.40;99.90;;;;;;5136282;27;19923;-78
2022/12/26 14:47:35;;;;;;;;;;;6.30;99.90;;;;;;5117560;27;19983;-78
2022/12/26 14:50:24;;;;;;;;;;;6.30;99.90;;;;;;5135904;27;19927;-78
2022/12/26 14:52:49;;;;;;;;;;;6.30;99.90;;;;;;5096752;27;20283;-78
2022/12/26 14:55:40;;;;;;;;;;;6.30;99.90;;;;;;5135793;27;19963;-78
2022/12/26 14:58:25;;;;;;;;;;;6.20;99.90;;;;;;5135462;27;20398;-78
2022/12/26 15:00:51;;;;;;;;;;;6.20;99.90;;;;;;5136081;27;19942;-78
2022/12/26 15:03:19;;;;;;;;;;;6.10;99.90;;;;;;5135632;27;20363;-79
2022/12/26 15:05:46;;;;;;;;;;;6.00;99.90;;;;;;5135972;27;19930;-79
2022/12/26 15:08:32;;;;;;;;;;;5.90;99.90;;;;;;5135090;27;20302;-78
2022/12/26 15:11:18;;;;;;;;;;;5.80;99.90;;;;;;5136396;27;19920;-78
2022/12/26 15:13:50;;;;;;;;;;;5.80;99.90;;;;;;5117225;27;19932;-78
2022/12/26 15:16:22;;;;;;;;;;;5.70;99.90;;;;;;5135804;27;19925;-78
2022/12/26 15:18:53;;;;;;;;;;;5.70;99.90;;;;;;5135388;27;19919;-78
2022/12/26 15:21:31;;;;;;;;;;;5.70;99.90;;;;;;5117069;28;19923;-78
2022/12/26 15:23:59;;;;;;;;;;;5.60;99.90;;;;;;5135797;27;19919;-78
2022/12/26 15:26:34;;;;;;;;;;;5.60;99.90;;;;;;5135327;27;20014;-78
2022/12/26 15:29:15;;;;;;;;;;;5.50;99.90;;;;;;5135138;27;20431;-78
2022/12/26 15:31:43;;;;;;;;;;;5.50;99.90;;;;;;5135636;27;19919;-78
2022/12/26 15:34:24;;;;;;;;;;;5.40;99.90;;;;;;5135582;27;19923;-78
2022/12/26 15:36:52;;;;;;;;;;;5.40;99.90;;;;;;5135305;27;20001;-78
2022/12/26 15:39:26;;;;;;;;;;;5.40;99.90;;;;;;5135173;27;19926;-78
2022/12/26 15:41:51;;;;;;;;;;;5.30;99.90;;;;;;5135155;27;19940;-78
2022/12/26 15:44:35;;;;;;;;;;;5.30;99.90;;;;;;5135566;27;19919;-78
2022/12/26 15:47:20;;;;;;;;;;;5.20;99.90;;;;;;5134822;27;20324;-78
2022/12/26 15:50:06;;;;;;;;;;;5.20;99.90;;;;;;5135008;28;19919;-78
2022/12/26 15:52:34;;;;;;;;;;;5.20;99.90;;;;;;5134960;28;19919;-78
2022/12/26 15:54:59;;;;;;;;;;;5.10;99.90;;;;;;5134739;28;20477;-79
2022/12/26 15:57:39;;;;;;;;;;;5.10;99.90;;;;;;5135277;28;20006;-78
2022/12/26 16:00:21;;;;;;;;;;;5.10;99.90;;;;;;5135284;28;19975;-78
2022/12/26 16:02:58;;;;;;;;;;;5.10;99.90;;;;;;5134840;28;19995;-78
2022/12/26 16:05:30;;;;;;;;;;;5.00;99.90;;;;;;5134905;28;19924;-78
2022/12/26 16:08:11;;;;;;;;;;;4.90;99.90;;;;;;5135286;28;19926;-78
2022/12/26 16:10:37;;;;;;;;;;;5.00;99.90;;;;;;5135181;28;19919;-78
2022/12/26 16:13:03;;;;;;;;;;;5.00;99.90;;;;;;5134766;28;19942;-78
2022/12/26 16:15:29;;;;;;;;;;;5.00;99.90;;;;;;5134551;28;19923;-78
2022/12/26 16:18:11;;;;;;;;;;;5.00;99.90;;;;;;5134779;28;19923;-78
2022/12/26 16:23:22;;;;;;;;;;;5.00;99.90;;;;;;5138597;27;19974;-78
2022/12/26 16:25:48;;;;;;;;;;;4.90;99.90;;;;;;5138688;27;19924;-78
2022/12/26 16:28:14;;;;;;;;;;;4.90;99.90;;;;;;5138447;27;20463;-78
2022/12/26 16:30:40;;;;;;;;;;;4.90;99.90;;;;;;5138866;27;19919;-78
2022/12/26 16:33:05;;;;;;;;;;;4.90;99.90;;;;;;5138545;27;19934;-78
2022/12/26 16:35:33;;;;;;;;;;;4.80;99.90;;;;;;5138640;27;19919;-78
2022/12/26 16:37:59;;;;;;;;;;;4.80;99.90;;;;;;5138474;27;20006;-78
2022/12/26 16:40:41;;;;;;;;;;;4.80;99.90;;;;;;5137576;27;19919;-78
2022/12/26 16:43:27;;;;;;;;;;;4.70;99.90;;;;;;5127200;27;19926;-78
2022/12/26 16:45:54;;;;;;;;;;;4.70;99.90;;;;;;5137161;27;20014;-80
2022/12/26 16:48:21;;;;;;;;;;;4.70;99.90;;;;;;5137962;27;19920;-78
2022/12/26 16:50:57;;;;;;;;;;;4.60;99.90;;;;;;5119741;27;19967;-78
2022/12/26 16:53:35;;;;;;;;;;;4.60;99.90;;;;;;5137981;27;19919;-78
2022/12/26 16:56:19;;;;;;;;;;;4.50;99.90;;;;;;5137630;27;19970;-78
2022/12/26 16:58:45;;;;;;;;;;;4.50;99.90;;;;;;5138177;27;19929;-79
2022/12/26 17:01:15;;;;;;;;;;;4.40;99.90;;;;;;5138037;27;20425;-78
2022/12/26 17:03:41;;;;;;;;;;;4.40;99.90;;;;;;5137851;27;20363;-79
2022/12/26 17:06:08;;;;;;;;;;;4.40;99.90;;;;;;5138002;27;19944;-78